KFDK/FDK METAR and TAF weather

Enter ICAO airport designator
Station Type Date Time Source
KFDK METAR 2020/09/25 07:35 UTC NOAA

KFDK 250735Z AUTO 00000KT 5SM BR CLR 13/12 A3005 RMK AO2


Station Type Date Time Source
KFDK Decoded METAR 2020/09/25 07:35 UTC NOAA

Frederick, Frederick Municipal Airport, MD, United States (KFDK) 39-25-03N 077-22-28W
Sep 25, 2020 - 03:35 AM EDT / 2020.09.25 0735 UTC
Wind: Calm:0
Visibility: 5 mile(s):0
Sky conditions: clear
Weather: mist
Temperature: 55 F (13 C)
Dew Point: 53 F (12 C)
Relative Humidity: 93%
Pressure (altimeter): 30.05 in. Hg (1017 hPa)
ob: KFDK 250735Z AUTO 00000KT 5SM BR CLR 13/12 A3005 RMK AO2
cycle: 7

Station Type Date Time Source
KFDK TAF UTC NOAA

Error!

Example: see airport list